createdAt,value
2023-04-05T00:01:33.812Z,101627.28
2023-04-05T00:04:01.760Z,101633.19
2023-04-05T00:06:29.268Z,101631.28
2023-04-05T00:08:57.478Z,101629.63
2023-04-05T00:11:24.955Z,101635.31
2023-04-05T00:13:51.437Z,101633.47
2023-04-05T00:16:18.446Z,101633.41
2023-04-05T00:18:49.086Z,101629.16
2023-04-05T00:21:22.054Z,101628.06
2023-04-05T00:23:50.559Z,101621.06
2023-04-05T00:26:17.439Z,101620.47
2023-04-05T00:28:48.619Z,101621.00
2023-04-05T00:31:15.503Z,101614.53
2023-04-05T00:33:42.025Z,101620.38
2023-04-05T00:36:12.596Z,101607.00
2023-04-05T00:38:40.062Z,101608.56
2023-04-05T00:41:06.478Z,101599.66
2023-04-05T00:43:33.001Z,101605.34
2023-04-05T00:46:01.113Z,101607.38
2023-04-05T00:48:28.861Z,101606.56
2023-04-05T00:50:56.511Z,101593.72
2023-04-05T00:53:23.171Z,101594.84
2023-04-05T00:55:51.179Z,101591.25
2023-04-05T00:58:19.209Z,101588.41
2023-04-05T01:01:05.683Z,101584.16
2023-04-05T01:03:34.628Z,101591.66
2023-04-05T01:06:09.909Z,101593.75
2023-04-05T01:08:51.464Z,101597.84
2023-04-05T01:11:18.276Z,101597.94
2023-04-05T01:13:46.004Z,101598.72
2023-04-05T01:16:12.892Z,101592.28
2023-04-05T01:18:40.457Z,101587.94
2023-04-05T01:21:22.481Z,101591.47
2023-04-05T01:24:14.086Z,101584.97
2023-04-05T01:27:19.313Z,101580.09
2023-04-05T01:30:03.323Z,101574.16
2023-04-05T01:32:36.900Z,101573.38
2023-04-05T01:35:15.366Z,101565.19
2023-04-05T01:37:44.513Z,101572.72
2023-04-05T01:40:12.338Z,101569.22
2023-04-05T01:42:38.798Z,101561.72
2023-04-05T01:45:08.675Z,101563.22
2023-04-05T01:47:35.082Z,101559.38
2023-04-05T01:50:02.046Z,101560.56
2023-04-05T01:52:28.647Z,101567.53
2023-04-05T01:54:55.625Z,101564.50
2023-04-05T01:57:22.926Z,101565.97
2023-04-05T01:59:49.488Z,101557.34
2023-04-05T02:02:15.929Z,101558.72
2023-04-05T02:04:42.707Z,101570.91
2023-04-05T02:07:09.458Z,101559.09
2023-04-05T02:09:35.768Z,101561.84
2023-04-05T02:12:02.552Z,101558.00
2023-04-05T02:14:29.129Z,101558.63
2023-04-05T02:16:55.884Z,101556.59
2023-04-05T02:19:25.246Z,101558.25
2023-04-05T02:21:55.526Z,101557.69
2023-04-05T02:24:22.616Z,101555.25
2023-04-05T02:26:49.040Z,101548.09
2023-04-05T02:29:17.090Z,101538.28
2023-04-05T02:31:43.724Z,101536.63
2023-04-05T02:34:12.400Z,101537.75
2023-04-05T02:36:41.225Z,101529.31
2023-04-05T02:39:08.320Z,101527.50
2023-04-05T02:41:35.661Z,101527.13
2023-04-05T02:44:02.295Z,101528.63
2023-04-05T02:46:29.898Z,101523.13
2023-04-05T02:48:57.305Z,101523.91
2023-04-05T02:51:27.806Z,101522.94
2023-04-05T02:53:54.577Z,101521.00
2023-04-05T02:56:21.346Z,101522.81
2023-04-05T02:58:48.601Z,101514.03
2023-04-05T03:01:19.667Z,101518.41
2023-04-05T03:03:46.149Z,101521.09
2023-04-05T03:06:14.054Z,101522.72
2023-04-05T03:08:48.500Z,101520.59
2023-04-05T03:11:19.224Z,101519.81
2023-04-05T03:13:50.321Z,101511.81
2023-04-05T03:16:39.997Z,101508.44
2023-04-05T03:19:16.600Z,101511.00
2023-04-05T03:21:44.685Z,101508.75
2023-04-05T03:24:23.094Z,101505.38
2023-04-05T03:26:50.525Z,101507.50
2023-04-05T03:29:20.353Z,101513.19
2023-04-05T03:31:50.134Z,101516.66
2023-04-05T03:34:21.727Z,101512.56
2023-04-05T03:36:49.063Z,101510.34
2023-04-05T03:39:27.814Z,101504.06
2023-04-05T03:41:56.045Z,101498.50
2023-04-05T03:44:22.430Z,101495.69
2023-04-05T03:46:48.600Z,101500.94
2023-04-05T03:49:15.817Z,101495.53
2023-04-05T03:51:42.073Z,101492.84
2023-04-05T03:54:10.157Z,101486.06
2023-04-05T03:56:37.267Z,101489.47
2023-04-05T03:59:11.366Z,101489.31
2023-04-05T04:01:38.062Z,101490.84
2023-04-05T04:04:05.884Z,101496.47
2023-04-05T04:06:32.551Z,101494.47
2023-04-05T04:08:59.150Z,101497.97
2023-04-05T04:11:25.266Z,101504.25
2023-04-05T04:13:52.366Z,101505.41
2023-04-05T04:16:28.941Z,101508.22
2023-04-05T04:19:15.684Z,101502.75
2023-04-05T04:22:00.957Z,101500.16
2023-04-05T04:25:02.000Z,101508.81
2023-04-05T04:27:54.944Z,101504.25
2023-04-05T04:30:42.983Z,101497.34
2023-04-05T04:33:27.543Z,101504.19
2023-04-05T04:36:13.132Z,101495.53
2023-04-05T04:38:57.328Z,101497.47
2023-04-05T04:41:35.153Z,101507.00
2023-04-05T04:44:14.040Z,101495.94
2023-04-05T04:46:58.845Z,101497.81
2023-04-05T04:49:45.603Z,101500.31
2023-04-05T04:52:12.354Z,101493.19
2023-04-05T04:54:41.903Z,101491.19
2023-04-05T04:57:08.758Z,101508.75
2023-04-05T04:59:35.253Z,101498.91
2023-04-05T05:02:04.857Z,101495.59
2023-04-05T05:04:33.483Z,101502.22
2023-04-05T05:07:00.271Z,101504.03
2023-04-05T05:09:26.584Z,101506.69
2023-04-05T05:11:58.823Z,101507.16
2023-04-05T05:14:25.142Z,101506.38
2023-04-05T05:16:53.870Z,101500.94
2023-04-05T05:19:20.563Z,101504.56
2023-04-05T05:21:52.429Z,101500.31
2023-04-05T05:24:19.952Z,101503.28
2023-04-05T05:26:46.273Z,101506.09
2023-04-05T05:29:12.366Z,101504.41
2023-04-05T05:31:41.808Z,101501.13
2023-04-05T05:34:07.958Z,101499.41
2023-04-05T05:36:36.757Z,101499.84
2023-04-05T05:39:05.180Z,101500.63
2023-04-05T05:41:31.543Z,101508.59
2023-04-05T05:43:57.629Z,101503.06
2023-04-05T05:46:25.257Z,101500.47
2023-04-05T05:48:51.511Z,101514.56
2023-04-05T05:51:17.869Z,101504.72
2023-04-05T05:53:44.774Z,101508.59
2023-04-05T05:56:11.152Z,101500.88
2023-04-05T05:58:37.481Z,101500.81
2023-04-05T06:01:06.845Z,101496.44
2023-04-05T06:03:33.228Z,101504.13
2023-04-05T06:06:02.457Z,101502.53
2023-04-05T06:08:28.963Z,101500.19
2023-04-05T06:10:55.824Z,101513.63
2023-04-05T06:13:21.943Z,101512.28
2023-04-05T06:15:48.365Z,101501.44
2023-04-05T06:18:14.844Z,101504.19
2023-04-05T06:20:43.808Z,101504.97
2023-04-05T06:23:11.106Z,101497.81
2023-04-05T06:25:37.677Z,101495.28
2023-04-05T06:28:04.528Z,101493.00
2023-04-05T06:30:32.399Z,101501.94
2023-04-05T06:32:59.609Z,101491.53
2023-04-05T06:35:26.034Z,101484.28
2023-04-05T06:37:52.653Z,101488.38
2023-04-05T06:40:19.914Z,101496.75
2023-04-05T06:42:46.361Z,101494.34
2023-04-05T06:45:18.404Z,101501.59
2023-04-05T06:47:44.533Z,101492.13
2023-04-05T06:50:10.969Z,101477.41
2023-04-05T06:52:37.310Z,101483.78
2023-04-05T06:55:04.335Z,101478.28
2023-04-05T06:57:30.809Z,101485.16
2023-04-05T06:59:57.847Z,101474.63
2023-04-05T07:02:23.963Z,101470.47
2023-04-05T07:04:50.434Z,101476.97
2023-04-05T07:07:16.960Z,101476.59
2023-04-05T07:09:43.337Z,101472.81
2023-04-05T07:12:09.571Z,101468.91
2023-04-05T07:14:37.057Z,101467.19
2023-04-05T07:17:08.049Z,101476.59
2023-04-05T07:19:34.285Z,101483.22
2023-04-05T07:22:00.977Z,101475.63
2023-04-05T07:24:27.204Z,101489.94
2023-04-05T07:26:53.795Z,101479.19
2023-04-05T07:29:20.160Z,101480.31
2023-04-05T07:31:46.958Z,101479.88
2023-04-05T07:34:13.304Z,101484.97
2023-04-05T07:36:40.156Z,101485.06
2023-04-05T07:39:06.397Z,101481.09
2023-04-05T07:41:34.669Z,101478.72
2023-04-05T07:44:01.048Z,101481.22
2023-04-05T07:46:27.693Z,101493.75
2023-04-05T07:48:54.207Z,101481.97
2023-04-05T07:51:20.727Z,101470.50
2023-04-05T07:53:47.457Z,101474.47
2023-04-05T07:56:14.181Z,101477.50
2023-04-05T07:58:40.678Z,101479.22
2023-04-05T08:01:09.501Z,101476.88
2023-04-05T08:03:38.658Z,101478.16
2023-04-05T08:06:19.006Z,101480.16
2023-04-05T08:08:46.134Z,101479.09
2023-04-05T08:11:13.028Z,101475.19
2023-04-05T08:13:42.241Z,101478.97
2023-04-05T08:16:10.190Z,101482.34
2023-04-05T08:18:36.873Z,101477.00
2023-04-05T08:21:03.941Z,101476.41
2023-04-05T08:23:31.457Z,101475.25
2023-04-05T08:25:58.030Z,101475.53
2023-04-05T08:28:24.107Z,101482.13
2023-04-05T08:30:57.096Z,101479.13
2023-04-05T08:33:25.061Z,101476.75
2023-04-05T08:35:52.199Z,101480.81
2023-04-05T08:38:18.833Z,101474.69
2023-04-05T08:40:46.853Z,101480.25
2023-04-05T08:43:23.699Z,101477.66
2023-04-05T08:45:51.967Z,101470.59
2023-04-05T08:48:19.952Z,101472.56
2023-04-05T08:50:51.007Z,101475.97
2023-04-05T08:53:18.286Z,101476.31
2023-04-05T08:55:50.302Z,101487.09
2023-04-05T08:58:17.109Z,101474.84
2023-04-05T09:00:44.283Z,101474.06
2023-04-05T09:03:22.611Z,101469.53
2023-04-05T09:05:53.048Z,101468.56
2023-04-05T09:08:22.874Z,101472.13
2023-04-05T09:10:53.605Z,101474.34
2023-04-05T09:13:19.682Z,101475.50
2023-04-05T09:15:48.869Z,101472.16
2023-04-05T09:18:25.570Z,101471.72
2023-04-05T09:21:02.261Z,101474.19
2023-04-05T09:23:28.396Z,101474.19
2023-04-05T09:25:55.193Z,101479.47
2023-04-05T09:28:21.285Z,101470.72
2023-04-05T09:30:47.725Z,101476.47
2023-04-05T09:33:19.132Z,101474.81
2023-04-05T09:35:49.293Z,101474.56
2023-04-05T09:38:15.525Z,101466.13
2023-04-05T09:40:50.572Z,101471.03
2023-04-05T09:43:37.254Z,101477.50
2023-04-05T09:46:03.880Z,101476.25
2023-04-05T09:48:50.526Z,101477.59
2023-04-05T09:51:17.971Z,101472.72
2023-04-05T09:54:04.855Z,101477.03
2023-04-05T09:56:36.176Z,101469.91
2023-04-05T09:59:11.674Z,101465.38
2023-04-05T10:01:42.476Z,101476.34
2023-04-05T10:04:08.771Z,101474.63
2023-04-05T10:06:40.465Z,101466.97
2023-04-05T10:09:08.512Z,101464.78
2023-04-05T10:11:36.420Z,101470.00
2023-04-05T10:14:05.192Z,101474.81
2023-04-05T10:16:49.000Z,101470.22
2023-04-05T10:19:23.464Z,101465.63
2023-04-05T10:21:53.541Z,101464.63
2023-04-05T10:24:38.431Z,101471.41
2023-04-05T10:27:11.322Z,101467.31
2023-04-05T10:29:50.048Z,101459.25
2023-04-05T10:32:28.490Z,101456.59
2023-04-05T10:35:06.994Z,101457.31
2023-04-05T10:37:53.188Z,101460.34
2023-04-05T10:40:23.695Z,101459.69
2023-04-05T10:42:51.337Z,101457.84
2023-04-05T10:45:21.469Z,101463.91
2023-04-05T10:47:58.550Z,101453.47
2023-04-05T10:50:25.005Z,101463.56
2023-04-05T10:52:52.910Z,101455.78
2023-04-05T10:55:20.629Z,101451.97
2023-04-05T10:57:49.159Z,101448.28
2023-04-05T11:00:16.839Z,101457.66
2023-04-05T11:02:43.923Z,101442.09
2023-04-05T11:05:34.173Z,101447.25
2023-04-05T11:08:06.693Z,101446.28
2023-04-05T11:10:38.284Z,101454.47
2023-04-05T11:13:06.812Z,101446.63
2023-04-05T11:15:34.454Z,101451.25
2023-04-05T11:18:20.669Z,101439.56
2023-04-05T11:20:55.232Z,101443.03
2023-04-05T11:23:24.284Z,101445.69
2023-04-05T11:26:06.144Z,101442.59
2023-04-05T11:28:39.749Z,101442.38
2023-04-05T11:31:22.171Z,101437.53
2023-04-05T11:34:11.493Z,101446.22
2023-04-05T11:36:48.170Z,101447.25
2023-04-05T11:39:17.670Z,101442.38
2023-04-05T11:42:04.889Z,101438.97
2023-04-05T11:44:52.383Z,101432.31
2023-04-05T11:47:22.556Z,101439.47
2023-04-05T11:49:50.814Z,101428.72
2023-04-05T11:52:18.843Z,101437.34
2023-04-05T11:54:46.029Z,101437.16
2023-04-05T11:57:15.542Z,101438.06
2023-04-05T11:59:42.559Z,101443.41
2023-04-05T12:02:09.405Z,101442.69
2023-04-05T12:04:37.329Z,101434.97
2023-04-05T12:07:11.688Z,101436.66
2023-04-05T12:10:00.176Z,101444.78
2023-04-05T12:12:26.758Z,101428.34
2023-04-05T12:15:00.858Z,101442.19
2023-04-05T12:17:49.736Z,101440.53
2023-04-05T12:20:19.785Z,101437.72
2023-04-05T12:22:48.150Z,101436.59
2023-04-05T12:25:16.491Z,101435.00
2023-04-05T12:27:43.616Z,101432.69
2023-04-05T12:30:22.133Z,101432.19
2023-04-05T12:32:55.725Z,101425.66
2023-04-05T12:35:32.100Z,101420.22
2023-04-05T12:38:00.328Z,101424.50
2023-04-05T12:40:27.280Z,101424.19
2023-04-05T12:43:01.576Z,101413.78
2023-04-05T12:45:28.313Z,101415.16
2023-04-05T12:47:59.258Z,101415.88
2023-04-05T12:50:30.964Z,101413.91
2023-04-05T12:52:59.303Z,101410.09
2023-04-05T12:55:29.781Z,101410.34
2023-04-05T12:57:59.166Z,101411.56
2023-04-05T13:00:28.624Z,101408.91
2023-04-05T13:02:56.663Z,101410.56
2023-04-05T13:05:30.539Z,101405.81
2023-04-05T13:07:58.087Z,101412.59
2023-04-05T13:10:25.330Z,101412.81
2023-04-05T13:12:51.621Z,101409.84
2023-04-05T13:15:18.540Z,101411.41
2023-04-05T13:17:48.853Z,101409.53
2023-04-05T13:20:17.064Z,101420.38
2023-04-05T13:22:43.762Z,101420.63
2023-04-05T13:25:10.291Z,101409.47
2023-04-05T13:27:36.433Z,101409.59
2023-04-05T13:30:03.329Z,101413.38
2023-04-05T13:32:29.780Z,101408.47
2023-04-05T13:34:56.732Z,101408.84
2023-04-05T13:37:23.196Z,101407.63
2023-04-05T13:39:49.598Z,101413.63
2023-04-05T13:42:16.183Z,101411.34
2023-04-05T13:44:42.792Z,101411.66
2023-04-05T13:47:08.912Z,101412.06
2023-04-05T13:49:35.456Z,101411.78
2023-04-05T13:52:01.895Z,101403.13
2023-04-05T13:54:28.635Z,101405.09
2023-04-05T13:56:56.342Z,101410.66
2023-04-05T13:59:22.875Z,101408.72
2023-04-05T14:01:49.265Z,101413.88
2023-04-05T14:04:16.016Z,101401.72
2023-04-05T14:06:43.554Z,101400.38
2023-04-05T14:09:10.640Z,101402.72
2023-04-05T14:11:37.235Z,101398.66
2023-04-05T14:14:03.842Z,101408.00
2023-04-05T14:16:30.570Z,101390.06
2023-04-05T14:18:57.130Z,101399.88
2023-04-05T14:21:25.290Z,101402.56
2023-04-05T14:23:56.131Z,101396.06
2023-04-05T14:26:27.496Z,101398.41
2023-04-05T14:28:54.274Z,101398.66
2023-04-05T14:31:20.643Z,101404.31
2023-04-05T14:33:47.339Z,101396.00
2023-04-05T14:36:14.043Z,101402.72
2023-04-05T14:38:41.430Z,101392.69
2023-04-05T14:41:07.719Z,101404.69
2023-04-05T14:43:34.418Z,101401.34
2023-04-05T14:46:00.699Z,101398.91
2023-04-05T14:48:29.761Z,101405.28
2023-04-05T14:50:56.776Z,101405.66
2023-04-05T14:53:24.244Z,101396.53
2023-04-05T14:55:50.911Z,101402.59
2023-04-05T14:58:17.826Z,101412.22
2023-04-05T15:00:44.893Z,101397.16
2023-04-05T15:03:12.205Z,101406.22
2023-04-05T15:05:38.610Z,101403.03
2023-04-05T15:08:05.426Z,101410.38
2023-04-05T15:10:33.075Z,101392.97
2023-04-05T15:12:59.765Z,101399.84
2023-04-05T15:15:26.310Z,101397.09
2023-04-05T15:17:53.271Z,101389.91
2023-04-05T15:20:19.718Z,101407.94
2023-04-05T15:22:46.436Z,101396.41
2023-04-05T15:25:13.140Z,101404.16
2023-04-05T15:27:40.160Z,101402.66
2023-04-05T15:30:07.415Z,101405.50
2023-04-05T15:32:34.349Z,101397.31
2023-04-05T15:35:01.076Z,101401.78
2023-04-05T15:37:27.720Z,101405.31
2023-04-05T15:39:54.129Z,101411.56
2023-04-05T15:42:23.688Z,101414.63
2023-04-05T15:44:50.503Z,101422.56
2023-04-05T15:47:18.182Z,101416.22
2023-04-05T15:49:44.773Z,101424.41
2023-04-05T15:52:11.393Z,101412.59
2023-04-05T15:54:38.027Z,101416.72
2023-04-05T15:57:05.069Z,101412.66
2023-04-05T15:59:31.723Z,101417.00
2023-04-05T16:01:58.935Z,101418.09
2023-04-05T16:04:27.243Z,101412.31
2023-04-05T16:06:54.533Z,101416.56
2023-04-05T16:09:22.353Z,101419.66
2023-04-05T16:11:49.381Z,101427.22
2023-04-05T16:14:16.159Z,101419.75
2023-04-05T16:16:53.091Z,101419.13
2023-04-05T16:19:21.364Z,101427.75
2023-04-05T16:21:48.857Z,101429.81
2023-04-05T16:24:15.473Z,101419.13
2023-04-05T16:26:42.400Z,101431.31
2023-04-05T16:29:08.747Z,101423.94
2023-04-05T16:31:36.875Z,101428.09
2023-04-05T16:34:03.626Z,101422.06
2023-04-05T16:36:30.172Z,101421.31
2023-04-05T16:38:56.670Z,101418.03
2023-04-05T16:41:23.628Z,101429.72
2023-04-05T16:43:51.028Z,101429.53
2023-04-05T16:46:18.144Z,101434.91
2023-04-05T16:48:44.809Z,101431.47
2023-04-05T16:51:12.288Z,101425.44
2023-04-05T16:53:39.422Z,101427.72
2023-04-05T16:56:06.413Z,101437.53
2023-04-05T16:58:33.052Z,101439.88
2023-04-05T17:01:00.083Z,101436.56
2023-04-05T17:03:27.004Z,101436.88
2023-04-05T17:05:53.299Z,101446.03
2023-04-05T17:08:20.032Z,101442.94
2023-04-05T17:10:46.774Z,101438.50
2023-04-05T17:13:17.584Z,101442.06
2023-04-05T17:15:44.396Z,101442.81
2023-04-05T17:18:11.918Z,101443.56
2023-04-05T17:20:38.644Z,101442.28
2023-04-05T17:23:05.793Z,101443.25
2023-04-05T17:25:32.693Z,101438.84
2023-04-05T17:27:59.689Z,101447.00
2023-04-05T17:30:26.548Z,101454.22
2023-04-05T17:32:53.510Z,101456.78
2023-04-05T17:35:21.494Z,101455.72
2023-04-05T17:37:48.356Z,101459.31
2023-04-05T17:40:15.575Z,101457.66
2023-04-05T17:42:42.782Z,101461.84
2023-04-05T17:45:09.700Z,101473.25
2023-04-05T17:47:37.149Z,101467.41
2023-04-05T17:50:04.405Z,101468.50
2023-04-05T17:52:31.414Z,101470.63
2023-04-05T17:54:57.771Z,101470.84
2023-04-05T17:57:24.321Z,101475.91
2023-04-05T17:59:51.357Z,101483.53
2023-04-05T18:02:18.681Z,101488.28
2023-04-05T18:04:45.307Z,101484.22
2023-04-05T18:07:12.153Z,101490.41
2023-04-05T18:09:41.325Z,101502.69
2023-04-05T18:12:08.798Z,101496.41
2023-04-05T18:14:37.963Z,101496.78
2023-04-05T18:17:08.556Z,101504.69
2023-04-05T18:19:34.992Z,101494.59
2023-04-05T18:22:01.828Z,101505.75
2023-04-05T18:24:28.777Z,101505.84
2023-04-05T18:26:55.685Z,101505.53
2023-04-05T18:29:27.442Z,101508.22
2023-04-05T18:31:55.455Z,101515.78
2023-04-05T18:34:22.053Z,101513.50
2023-04-05T18:36:49.068Z,101516.69
2023-04-05T18:39:16.210Z,101526.09
2023-04-05T18:41:43.293Z,101527.16
2023-04-05T18:44:09.801Z,101520.63
2023-04-05T18:46:37.939Z,101528.19
2023-04-05T18:49:04.667Z,101523.31
2023-04-05T18:51:32.552Z,101529.91
2023-04-05T18:53:59.375Z,101535.94
2023-04-05T18:56:27.144Z,101532.88
2023-04-05T18:58:53.780Z,101538.53
2023-04-05T19:01:21.652Z,101529.50
2023-04-05T19:03:49.845Z,101545.22
2023-04-05T19:06:17.168Z,101544.81
2023-04-05T19:08:44.009Z,101538.50
2023-04-05T19:11:13.209Z,101542.31
2023-04-05T19:13:41.482Z,101542.31
2023-04-05T19:16:08.465Z,101545.47
2023-04-05T19:18:35.360Z,101543.81
2023-04-05T19:21:02.366Z,101545.13
2023-04-05T19:23:29.684Z,101552.81
2023-04-05T19:25:57.535Z,101546.78
2023-04-05T19:28:25.371Z,101552.13
2023-04-05T19:30:52.571Z,101550.09
2023-04-05T19:33:21.589Z,101550.28
2023-04-05T19:35:49.928Z,101557.63
2023-04-05T19:38:16.535Z,101550.19
2023-04-05T19:40:43.768Z,101553.13
2023-04-05T19:43:11.941Z,101560.75
2023-04-05T19:45:39.099Z,101554.41
2023-04-05T19:48:46.358Z,101551.31
2023-04-05T19:51:16.703Z,101560.03
2023-04-05T19:53:48.439Z,101557.19
2023-04-05T19:56:23.628Z,101555.97
2023-04-05T19:59:00.972Z,101566.63
2023-04-05T20:01:37.242Z,101566.44
2023-04-05T20:04:15.655Z,101564.34
2023-04-05T20:06:51.463Z,101560.47
2023-04-05T20:09:19.606Z,101553.91
2023-04-05T20:11:51.616Z,101555.09
2023-04-05T20:14:22.193Z,101555.53
2023-04-05T20:16:49.281Z,101550.25
2023-04-05T20:19:16.536Z,101552.25
2023-04-05T20:21:43.516Z,101559.88
2023-04-05T20:24:17.385Z,101548.97
2023-04-05T20:26:45.480Z,101547.16
2023-04-05T20:29:16.266Z,101555.81
2023-04-05T20:31:43.258Z,101547.16
2023-04-05T20:34:09.615Z,101548.41
2023-04-05T20:36:57.634Z,101547.00
2023-04-05T20:39:24.882Z,101545.47
2023-04-05T20:41:52.016Z,101547.75
2023-04-05T20:44:18.477Z,101551.69
2023-04-05T20:46:46.047Z,101540.66
2023-04-05T20:49:12.587Z,101545.44
2023-04-05T20:51:41.953Z,101544.44
2023-04-05T20:54:09.193Z,101547.47
2023-04-05T20:56:35.972Z,101537.13
2023-04-05T20:59:02.727Z,101542.69
2023-04-05T21:01:29.948Z,101544.63
2023-04-05T21:03:56.565Z,101542.22
2023-04-05T21:06:23.704Z,101540.13
2023-04-05T21:08:50.209Z,101543.09
2023-04-05T21:11:16.936Z,101546.75
2023-04-05T21:13:43.145Z,101545.25
2023-04-05T21:16:10.225Z,101535.47
2023-04-05T21:18:36.753Z,101537.22
2023-04-05T21:21:03.519Z,101543.41
2023-04-05T21:23:30.784Z,101541.22
2023-04-05T21:25:58.691Z,101541.47
2023-04-05T21:28:25.580Z,101536.22
2023-04-05T21:30:52.954Z,101534.66
2023-04-05T21:33:20.049Z,101529.47
2023-04-05T21:35:46.601Z,101531.50
2023-04-05T21:38:15.425Z,101533.16
2023-04-05T21:40:43.843Z,101532.22
2023-04-05T21:43:10.940Z,101525.66
2023-04-05T21:45:37.360Z,101531.09
2023-04-05T21:48:03.669Z,101525.22
2023-04-05T21:50:30.287Z,101529.53
2023-04-05T21:52:56.369Z,101531.97
2023-04-05T21:55:23.590Z,101529.22
2023-04-05T21:57:50.668Z,101526.38
2023-04-05T22:00:17.790Z,101528.25
2023-04-05T22:02:44.579Z,101518.75
2023-04-05T22:05:11.068Z,101526.03
2023-04-05T22:07:38.292Z,101527.34
2023-04-05T22:10:05.479Z,101524.44
2023-04-05T22:12:31.721Z,101532.00
2023-04-05T22:14:58.190Z,101525.34
2023-04-05T22:17:25.759Z,101522.00
2023-04-05T22:19:52.183Z,101525.06
2023-04-05T22:22:18.474Z,101527.44
2023-04-05T22:24:44.983Z,101527.09
2023-04-05T22:27:11.607Z,101538.56
2023-04-05T22:29:38.542Z,101527.47
2023-04-05T22:32:05.068Z,101522.69
2023-04-05T22:34:31.669Z,101531.72
2023-04-05T22:36:57.964Z,101524.63
2023-04-05T22:39:24.726Z,101527.88
2023-04-05T22:41:50.859Z,101528.06
2023-04-05T22:44:17.395Z,101534.28
2023-04-05T22:46:43.744Z,101523.38
2023-04-05T22:49:10.614Z,101528.66
2023-04-05T22:51:36.928Z,101529.69
2023-04-05T22:54:03.340Z,101529.19
2023-04-05T22:56:30.835Z,101529.44
2023-04-05T22:58:57.298Z,101535.22
2023-04-05T23:01:23.440Z,101531.75
2023-04-05T23:03:49.831Z,101542.09
2023-04-05T23:06:15.936Z,101533.09
2023-04-05T23:08:42.403Z,101535.88
2023-04-05T23:11:09.159Z,101537.09
2023-04-05T23:13:35.706Z,101534.69
2023-04-05T23:16:01.846Z,101525.09
2023-04-05T23:18:28.364Z,101530.91
2023-04-05T23:20:54.701Z,101537.97
2023-04-05T23:23:21.167Z,101544.84
2023-04-05T23:25:47.406Z,101538.91
2023-04-05T23:28:13.930Z,101539.94
2023-04-05T23:30:40.686Z,101537.75
2023-04-05T23:33:07.237Z,101526.84
2023-04-05T23:35:33.404Z,101536.00
2023-04-05T23:37:59.826Z,101536.66
2023-04-05T23:40:26.046Z,101539.22
2023-04-05T23:42:52.490Z,101535.75
2023-04-05T23:45:18.637Z,101534.59
2023-04-05T23:47:45.029Z,101536.09
2023-04-05T23:50:11.153Z,101537.44
2023-04-05T23:52:37.674Z,101522.81
2023-04-05T23:55:04.206Z,101535.41
2023-04-05T23:57:30.903Z,101533.19
2023-04-05T23:59:57.049Z,101522.75
